sensor_id;sensor_type;location;lat;lon;timestamp;temperature;humidity
17236;DHT22;8734;59.272;17.780;2023-04-15T00:00:34;3.30;99.90
17236;DHT22;8734;59.272;17.780;2023-04-15T00:03:03;3.30;99.90
17236;DHT22;8734;59.272;17.780;2023-04-15T00:05:33;3.40;99.90
17236;DHT22;8734;59.272;17.780;2023-04-15T00:08:02;3.40;99.90
17236;DHT22;8734;59.272;17.780;2023-04-15T00:10:31;3.30;99.90
17236;DHT22;8734;59.272;17.780;2023-04-15T00:12:59;3.30;99.90
17236;DHT22;8734;59.272;17.780;2023-04-15T00:15:28;3.30;99.90
17236;DHT22;8734;59.272;17.780;2023-04-15T00:17:57;3.40;99.90
17236;DHT22;8734;59.272;17.780;2023-04-15T00:20:25;3.40;99.90
17236;DHT22;8734;59.272;17.780;2023-04-15T00:22:55;3.40;99.90
17236;DHT22;8734;59.272;17.780;2023-04-15T00:25:23;3.40;99.90
17236;DHT22;8734;59.272;17.780;2023-04-15T00:27:52;3.40;99.90
17236;DHT22;8734;59.272;17.780;2023-04-15T00:30:20;3.40;99.90
17236;DHT22;8734;59.272;17.780;2023-04-15T00:32:49;3.30;99.90
17236;DHT22;8734;59.272;17.780;2023-04-15T00:35:18;3.40;99.90
17236;DHT22;8734;59.272;17.780;2023-04-15T00:37:47;3.40;99.90
17236;DHT22;8734;59.272;17.780;2023-04-15T00:40:18;3.40;99.90
17236;DHT22;8734;59.272;17.780;2023-04-15T00:42:46;3.40;99.90
17236;DHT22;8734;59.272;17.780;2023-04-15T00:45:15;3.40;99.90
17236;DHT22;8734;59.272;17.780;2023-04-15T00:47:43;3.40;99.90
17236;DHT22;8734;59.272;17.780;2023-04-15T00:50:12;3.40;99.90
17236;DHT22;8734;59.272;17.780;2023-04-15T00:52:40;3.40;99.90
17236;DHT22;8734;59.272;17.780;2023-04-15T00:55:09;3.40;99.90
17236;DHT22;8734;59.272;17.780;2023-04-15T00:57:39;3.30;99.90
17236;DHT22;8734;59.272;17.780;2023-04-15T01:00:08;3.30;99.90
17236;DHT22;8734;59.272;17.780;2023-04-15T01:02:38;3.30;99.90
17236;DHT22;8734;59.272;17.780;2023-04-15T01:05:07;3.40;99.90
17236;DHT22;8734;59.272;17.780;2023-04-15T01:07:35;3.40;99.90
17236;DHT22;8734;59.272;17.780;2023-04-15T01:10:04;3.50;99.90
17236;DHT22;8734;59.272;17.780;2023-04-15T01:12:32;3.60;99.90
17236;DHT22;8734;59.272;17.780;2023-04-15T01:15:03;3.50;99.90
17236;DHT22;8734;59.272;17.780;2023-04-15T01:17:32;3.50;99.90
17236;DHT22;8734;59.272;17.780;2023-04-15T01:20:00;3.50;99.90
17236;DHT22;8734;59.272;17.780;2023-04-15T01:22:29;3.50;99.90
17236;DHT22;8734;59.272;17.780;2023-04-15T01:25:05;3.50;99.90
17236;DHT22;8734;59.272;17.780;2023-04-15T01:27:38;3.50;99.90
17236;DHT22;8734;59.272;17.780;2023-04-15T01:30:07;3.60;99.90
17236;DHT22;8734;59.272;17.780;2023-04-15T01:32:36;3.60;99.90
17236;DHT22;8734;59.272;17.780;2023-04-15T01:35:05;3.60;99.90
17236;DHT22;8734;59.272;17.780;2023-04-15T01:37:35;3.60;99.90
17236;DHT22;8734;59.272;17.780;2023-04-15T01:40:04;3.60;99.90
17236;DHT22;8734;59.272;17.780;2023-04-15T01:42:33;3.60;99.90
17236;DHT22;8734;59.272;17.780;2023-04-15T01:45:04;3.60;99.90
17236;DHT22;8734;59.272;17.780;2023-04-15T01:47:32;3.70;99.90
17236;DHT22;8734;59.272;17.780;2023-04-15T01:50:01;3.70;99.90
17236;DHT22;8734;59.272;17.780;2023-04-15T01:52:30;3.70;99.90
17236;DHT22;8734;59.272;17.780;2023-04-15T01:54:58;3.70;99.90
17236;DHT22;8734;59.272;17.780;2023-04-15T01:57:26;3.80;99.90
17236;DHT22;8734;59.272;17.780;2023-04-15T01:59:55;3.80;99.90
17236;DHT22;8734;59.272;17.780;2023-04-15T02:02:24;3.80;99.90
17236;DHT22;8734;59.272;17.780;2023-04-15T02:04:53;3.80;99.90
17236;DHT22;8734;59.272;17.780;2023-04-15T02:07:21;3.80;99.90
17236;DHT22;8734;59.272;17.780;2023-04-15T02:09:50;3.90;99.90
17236;DHT22;8734;59.272;17.780;2023-04-15T02:12:19;3.90;99.90
17236;DHT22;8734;59.272;17.780;2023-04-15T02:14:47;3.90;99.90
17236;DHT22;8734;59.272;17.780;2023-04-15T02:17:16;3.90;99.90
17236;DHT22;8734;59.272;17.780;2023-04-15T02:19:45;3.90;99.90
17236;DHT22;8734;59.272;17.780;2023-04-15T02:22:14;3.90;99.90
17236;DHT22;8734;59.272;17.780;2023-04-15T02:24:45;4.00;99.90
17236;DHT22;8734;59.272;17.780;2023-04-15T02:27:17;4.00;99.90
17236;DHT22;8734;59.272;17.780;2023-04-15T02:29:45;4.00;99.90
17236;DHT22;8734;59.272;17.780;2023-04-15T02:32:13;4.00;99.90
17236;DHT22;8734;59.272;17.780;2023-04-15T02:34:42;4.00;99.90
17236;DHT22;8734;59.272;17.780;2023-04-15T02:37:13;3.90;99.90
17236;DHT22;8734;59.272;17.780;2023-04-15T02:39:41;3.90;99.90
17236;DHT22;8734;59.272;17.780;2023-04-15T02:42:10;4.00;99.90
17236;DHT22;8734;59.272;17.780;2023-04-15T02:44:39;4.00;99.90
17236;DHT22;8734;59.272;17.780;2023-04-15T02:47:07;4.00;99.90
17236;DHT22;8734;59.272;17.780;2023-04-15T02:49:37;4.00;99.90
17236;DHT22;8734;59.272;17.780;2023-04-15T02:52:06;4.00;99.90
17236;DHT22;8734;59.272;17.780;2023-04-15T02:54:35;4.00;99.90
17236;DHT22;8734;59.272;17.780;2023-04-15T02:57:04;4.00;99.90
17236;DHT22;8734;59.272;17.780;2023-04-15T02:59:32;4.00;99.90
17236;DHT22;8734;59.272;17.780;2023-04-15T03:02:00;4.00;99.90
17236;DHT22;8734;59.272;17.780;2023-04-15T03:04:29;4.00;99.90
17236;DHT22;8734;59.272;17.780;2023-04-15T03:06:57;4.00;99.90
17236;DHT22;8734;59.272;17.780;2023-04-15T03:09:26;4.00;99.90
17236;DHT22;8734;59.272;17.780;2023-04-15T03:11:56;4.00;99.90
17236;DHT22;8734;59.272;17.780;2023-04-15T03:14:24;4.00;99.90
17236;DHT22;8734;59.272;17.780;2023-04-15T03:16:52;4.00;99.90
17236;DHT22;8734;59.272;17.780;2023-04-15T03:19:21;4.00;99.90
17236;DHT22;8734;59.272;17.780;2023-04-15T03:21:49;4.00;99.90
17236;DHT22;8734;59.272;17.780;2023-04-15T03:24:17;4.00;99.90
17236;DHT22;8734;59.272;17.780;2023-04-15T03:26:46;4.00;99.90
17236;DHT22;8734;59.272;17.780;2023-04-15T03:29:15;4.00;99.90
17236;DHT22;8734;59.272;17.780;2023-04-15T03:31:44;4.00;99.90
17236;DHT22;8734;59.272;17.780;2023-04-15T03:34:12;4.00;99.90
17236;DHT22;8734;59.272;17.780;2023-04-15T03:36:40;4.00;99.90
17236;DHT22;8734;59.272;17.780;2023-04-15T03:39:08;4.00;99.90
17236;DHT22;8734;59.272;17.780;2023-04-15T03:41:37;4.00;99.90
17236;DHT22;8734;59.272;17.780;2023-04-15T03:44:05;4.00;99.90
17236;DHT22;8734;59.272;17.780;2023-04-15T03:46:34;4.00;99.90
17236;DHT22;8734;59.272;17.780;2023-04-15T03:49:03;4.00;99.90
17236;DHT22;8734;59.272;17.780;2023-04-15T03:51:32;4.00;99.90
17236;DHT22;8734;59.272;17.780;2023-04-15T03:54:00;4.00;99.90
17236;DHT22;8734;59.272;17.780;2023-04-15T03:56:29;4.00;99.90
17236;DHT22;8734;59.272;17.780;2023-04-15T03:58:57;4.00;99.90
17236;DHT22;8734;59.272;17.780;2023-04-15T04:01:26;4.00;99.90
17236;DHT22;8734;59.272;17.780;2023-04-15T04:03:56;4.00;99.90
17236;DHT22;8734;59.272;17.780;2023-04-15T04:06:24;4.00;99.90
17236;DHT22;8734;59.272;17.780;2023-04-15T04:08:53;4.00;99.90
17236;DHT22;8734;59.272;17.780;2023-04-15T04:11:22;4.00;99.90
17236;DHT22;8734;59.272;17.780;2023-04-15T04:13:50;4.10;99.90
17236;DHT22;8734;59.272;17.780;2023-04-15T04:16:18;4.10;99.90
17236;DHT22;8734;59.272;17.780;2023-04-15T04:18:47;4.10;99.90
17236;DHT22;8734;59.272;17.780;2023-04-15T04:21:16;4.10;99.90
17236;DHT22;8734;59.272;17.780;2023-04-15T04:23:45;4.10;99.90
17236;DHT22;8734;59.272;17.780;2023-04-15T04:26:13;4.20;99.90
17236;DHT22;8734;59.272;17.780;2023-04-15T04:28:42;4.20;99.90
17236;DHT22;8734;59.272;17.780;2023-04-15T04:31:10;4.20;99.90
17236;DHT22;8734;59.272;17.780;2023-04-15T04:33:39;4.20;99.90
17236;DHT22;8734;59.272;17.780;2023-04-15T04:36:07;4.30;99.90
17236;DHT22;8734;59.272;17.780;2023-04-15T04:38:36;4.30;99.90
17236;DHT22;8734;59.272;17.780;2023-04-15T04:41:05;4.40;99.90
17236;DHT22;8734;59.272;17.780;2023-04-15T04:43:33;4.50;99.90
17236;DHT22;8734;59.272;17.780;2023-04-15T04:46:01;4.50;99.90
17236;DHT22;8734;59.272;17.780;2023-04-15T04:48:29;4.60;99.90
17236;DHT22;8734;59.272;17.780;2023-04-15T04:50:58;4.50;99.90
17236;DHT22;8734;59.272;17.780;2023-04-15T04:53:26;4.50;99.90
17236;DHT22;8734;59.272;17.780;2023-04-15T04:55:56;4.50;99.90
17236;DHT22;8734;59.272;17.780;2023-04-15T04:58:24;4.50;99.90
17236;DHT22;8734;59.272;17.780;2023-04-15T05:00:53;4.50;99.90
17236;DHT22;8734;59.272;17.780;2023-04-15T05:03:21;4.40;99.90
17236;DHT22;8734;59.272;17.780;2023-04-15T05:05:50;4.50;99.90
17236;DHT22;8734;59.272;17.780;2023-04-15T05:08:18;4.50;99.90
17236;DHT22;8734;59.272;17.780;2023-04-15T05:10:47;4.50;99.90
17236;DHT22;8734;59.272;17.780;2023-04-15T05:13:17;4.40;99.90
17236;DHT22;8734;59.272;17.780;2023-04-15T05:15:47;4.50;99.90
17236;DHT22;8734;59.272;17.780;2023-04-15T05:18:15;4.40;99.90
17236;DHT22;8734;59.272;17.780;2023-04-15T05:20:44;4.50;99.90
17236;DHT22;8734;59.272;17.780;2023-04-15T05:23:12;4.50;99.90
17236;DHT22;8734;59.272;17.780;2023-04-15T05:25:40;4.50;99.90
17236;DHT22;8734;59.272;17.780;2023-04-15T05:28:09;4.50;99.90
17236;DHT22;8734;59.272;17.780;2023-04-15T05:30:39;4.60;99.90
17236;DHT22;8734;59.272;17.780;2023-04-15T05:33:07;4.60;99.90
17236;DHT22;8734;59.272;17.780;2023-04-15T05:35:36;4.70;99.90
17236;DHT22;8734;59.272;17.780;2023-04-15T05:38:04;4.70;99.90
17236;DHT22;8734;59.272;17.780;2023-04-15T05:40:33;4.80;99.90
17236;DHT22;8734;59.272;17.780;2023-04-15T05:43:02;4.80;99.90
17236;DHT22;8734;59.272;17.780;2023-04-15T05:45:30;4.80;99.90
17236;DHT22;8734;59.272;17.780;2023-04-15T05:48:00;4.80;99.90
17236;DHT22;8734;59.272;17.780;2023-04-15T05:50:28;4.90;99.90
17236;DHT22;8734;59.272;17.780;2023-04-15T05:52:56;4.90;99.90
17236;DHT22;8734;59.272;17.780;2023-04-15T05:55:24;4.90;99.90
17236;DHT22;8734;59.272;17.780;2023-04-15T05:57:53;5.00;99.90
17236;DHT22;8734;59.272;17.780;2023-04-15T06:00:21;5.00;99.90
17236;DHT22;8734;59.272;17.780;2023-04-15T06:02:50;5.10;99.90
17236;DHT22;8734;59.272;17.780;2023-04-15T06:05:20;5.10;99.90
17236;DHT22;8734;59.272;17.780;2023-04-15T06:07:48;5.20;99.90
17236;DHT22;8734;59.272;17.780;2023-04-15T06:10:17;5.20;99.90
17236;DHT22;8734;59.272;17.780;2023-04-15T06:12:45;5.20;99.90
17236;DHT22;8734;59.272;17.780;2023-04-15T06:15:14;5.20;99.90
17236;DHT22;8734;59.272;17.780;2023-04-15T06:17:43;5.30;99.90
17236;DHT22;8734;59.272;17.780;2023-04-15T06:20:11;5.30;99.90
17236;DHT22;8734;59.272;17.780;2023-04-15T06:22:41;5.40;99.90
17236;DHT22;8734;59.272;17.780;2023-04-15T06:25:09;5.40;99.90
17236;DHT22;8734;59.272;17.780;2023-04-15T06:27:38;5.50;99.90
17236;DHT22;8734;59.272;17.780;2023-04-15T06:30:07;5.50;99.90
17236;DHT22;8734;59.272;17.780;2023-04-15T06:32:35;5.50;99.90
17236;DHT22;8734;59.272;17.780;2023-04-15T06:35:04;5.60;99.90
17236;DHT22;8734;59.272;17.780;2023-04-15T06:37:33;5.70;99.90
17236;DHT22;8734;59.272;17.780;2023-04-15T06:40:03;5.70;99.90
17236;DHT22;8734;59.272;17.780;2023-04-15T06:42:31;5.80;99.90
17236;DHT22;8734;59.272;17.780;2023-04-15T06:45:00;5.80;99.90
17236;DHT22;8734;59.272;17.780;2023-04-15T06:47:28;5.90;99.90
17236;DHT22;8734;59.272;17.780;2023-04-15T06:49:57;6.00;99.90
17236;DHT22;8734;59.272;17.780;2023-04-15T06:52:25;6.00;99.90
17236;DHT22;8734;59.272;17.780;2023-04-15T06:54:53;6.10;99.90
17236;DHT22;8734;59.272;17.780;2023-04-15T06:57:23;6.10;99.90
17236;DHT22;8734;59.272;17.780;2023-04-15T06:59:51;6.30;99.90
17236;DHT22;8734;59.272;17.780;2023-04-15T07:02:20;6.40;99.90
17236;DHT22;8734;59.272;17.780;2023-04-15T07:04:49;6.50;99.90
17236;DHT22;8734;59.272;17.780;2023-04-15T07:07:17;6.70;99.90
17236;DHT22;8734;59.272;17.780;2023-04-15T07:09:45;6.80;99.90
17236;DHT22;8734;59.272;17.780;2023-04-15T07:12:14;6.80;99.90
17236;DHT22;8734;59.272;17.780;2023-04-15T07:14:44;6.90;99.90
17236;DHT22;8734;59.272;17.780;2023-04-15T07:17:12;7.00;99.90
17236;DHT22;8734;59.272;17.780;2023-04-15T07:19:40;7.10;99.90
17236;DHT22;8734;59.272;17.780;2023-04-15T07:22:08;7.30;99.90
17236;DHT22;8734;59.272;17.780;2023-04-15T07:24:37;7.50;99.90
17236;DHT22;8734;59.272;17.780;2023-04-15T07:27:05;7.60;99.90
17236;DHT22;8734;59.272;17.780;2023-04-15T07:29:34;7.60;99.90
17236;DHT22;8734;59.272;17.780;2023-04-15T07:32:04;7.70;99.90
17236;DHT22;8734;59.272;17.780;2023-04-15T07:34:33;7.80;99.90
17236;DHT22;8734;59.272;17.780;2023-04-15T07:37:01;7.90;99.90
17236;DHT22;8734;59.272;17.780;2023-04-15T07:39:29;8.00;99.90
17236;DHT22;8734;59.272;17.780;2023-04-15T07:41:58;8.20;99.90
17236;DHT22;8734;59.272;17.780;2023-04-15T07:44:26;8.40;99.90
17236;DHT22;8734;59.272;17.780;2023-04-15T07:46:55;8.80;99.90
17236;DHT22;8734;59.272;17.780;2023-04-15T07:49:24;9.10;99.90
17236;DHT22;8734;59.272;17.780;2023-04-15T07:51:53;9.20;99.90
17236;DHT22;8734;59.272;17.780;2023-04-15T07:54:23;9.50;99.90
17236;DHT22;8734;59.272;17.780;2023-04-15T07:56:52;10.00;99.90
17236;DHT22;8734;59.272;17.780;2023-04-15T07:59:20;10.30;99.90
17236;DHT22;8734;59.272;17.780;2023-04-15T08:01:49;10.50;99.90
17236;DHT22;8734;59.272;17.780;2023-04-15T08:04:17;10.60;99.90
17236;DHT22;8734;59.272;17.780;2023-04-15T08:06:47;10.80;99.90
17236;DHT22;8734;59.272;17.780;2023-04-15T08:09:16;10.90;99.90
17236;DHT22;8734;59.272;17.780;2023-04-15T08:11:47;11.10;99.90
17236;DHT22;8734;59.272;17.780;2023-04-15T08:14:15;11.30;99.90
17236;DHT22;8734;59.272;17.780;2023-04-15T08:16:44;11.30;99.90
17236;DHT22;8734;59.272;17.780;2023-04-15T08:19:12;11.20;99.90
17236;DHT22;8734;59.272;17.780;2023-04-15T08:21:40;11.20;99.90
17236;DHT22;8734;59.272;17.780;2023-04-15T08:24:10;11.50;99.90
17236;DHT22;8734;59.272;17.780;2023-04-15T08:26:38;11.60;99.90
17236;DHT22;8734;59.272;17.780;2023-04-15T08:29:07;11.70;99.90
17236;DHT22;8734;59.272;17.780;2023-04-15T08:31:36;11.60;99.90
17236;DHT22;8734;59.272;17.780;2023-04-15T08:34:04;11.90;99.90
17236;DHT22;8734;59.272;17.780;2023-04-15T08:36:32;12.10;99.90
17236;DHT22;8734;59.272;17.780;2023-04-15T08:39:00;12.10;99.90
17236;DHT22;8734;59.272;17.780;2023-04-15T08:41:39;11.90;99.90
17236;DHT22;8734;59.272;17.780;2023-04-15T08:44:08;12.30;99.90
17236;DHT22;8734;59.272;17.780;2023-04-15T08:46:37;12.40;99.90
17236;DHT22;8734;59.272;17.780;2023-04-15T08:49:09;12.20;99.90
17236;DHT22;8734;59.272;17.780;2023-04-15T08:51:38;12.70;99.90
17236;DHT22;8734;59.272;17.780;2023-04-15T08:54:07;12.30;99.90
17236;DHT22;8734;59.272;17.780;2023-04-15T08:56:38;12.60;99.90
17236;DHT22;8734;59.272;17.780;2023-04-15T08:59:06;12.60;99.90
17236;DHT22;8734;59.272;17.780;2023-04-15T09:01:36;12.90;99.90
17236;DHT22;8734;59.272;17.780;2023-04-15T09:04:05;12.40;99.90
17236;DHT22;8734;59.272;17.780;2023-04-15T09:06:34;12.50;99.90
17236;DHT22;8734;59.272;17.780;2023-04-15T09:09:02;12.70;99.90
17236;DHT22;8734;59.272;17.780;2023-04-15T09:11:31;12.80;99.90
17236;DHT22;8734;59.272;17.780;2023-04-15T09:14:00;12.90;99.90
17236;DHT22;8734;59.272;17.780;2023-04-15T09:16:29;13.40;99.90
17236;DHT22;8734;59.272;17.780;2023-04-15T09:18:58;13.60;99.90
17236;DHT22;8734;59.272;17.780;2023-04-15T09:21:26;14.10;99.90
17236;DHT22;8734;59.272;17.780;2023-04-15T09:23:56;13.30;99.90
17236;DHT22;8734;59.272;17.780;2023-04-15T09:26:32;13.00;99.90
17236;DHT22;8734;59.272;17.780;2023-04-15T09:29:06;12.60;99.90
17236;DHT22;8734;59.272;17.780;2023-04-15T09:31:35;12.80;99.90
17236;DHT22;8734;59.272;17.780;2023-04-15T09:34:04;13.50;99.90
17236;DHT22;8734;59.272;17.780;2023-04-15T09:36:51;13.60;99.90
17236;DHT22;8734;59.272;17.780;2023-04-15T09:39:19;13.30;99.90
17236;DHT22;8734;59.272;17.780;2023-04-15T09:42:03;13.30;99.90
17236;DHT22;8734;59.272;17.780;2023-04-15T09:44:34;13.80;99.90
17236;DHT22;8734;59.272;17.780;2023-04-15T09:47:02;14.40;99.90
17236;DHT22;8734;59.272;17.780;2023-04-15T09:49:31;14.30;99.90
17236;DHT22;8734;59.272;17.780;2023-04-15T09:52:00;14.10;99.90
17236;DHT22;8734;59.272;17.780;2023-04-15T09:54:33;13.80;99.90
17236;DHT22;8734;59.272;17.780;2023-04-15T09:57:06;13.70;99.90
17236;DHT22;8734;59.272;17.780;2023-04-15T09:59:37;14.00;99.90
17236;DHT22;8734;59.272;17.780;2023-04-15T10:02:06;13.90;99.90
17236;DHT22;8734;59.272;17.780;2023-04-15T10:04:35;13.60;99.90
17236;DHT22;8734;59.272;17.780;2023-04-15T10:07:06;13.80;99.90
17236;DHT22;8734;59.272;17.780;2023-04-15T10:09:36;13.90;99.90
17236;DHT22;8734;59.272;17.780;2023-04-15T10:12:05;14.40;99.90
17236;DHT22;8734;59.272;17.780;2023-04-15T10:14:35;14.70;99.90
17236;DHT22;8734;59.272;17.780;2023-04-15T10:17:07;15.30;99.90
17236;DHT22;8734;59.272;17.780;2023-04-15T10:19:38;15.70;99.90
17236;DHT22;8734;59.272;17.780;2023-04-15T10:22:07;15.60;99.90
17236;DHT22;8734;59.272;17.780;2023-04-15T10:24:36;16.30;99.90
17236;DHT22;8734;59.272;17.780;2023-04-15T10:27:06;17.40;99.90
17236;DHT22;8734;59.272;17.780;2023-04-15T10:29:35;17.20;99.90
17236;DHT22;8734;59.272;17.780;2023-04-15T10:32:03;16.50;99.90
17236;DHT22;8734;59.272;17.780;2023-04-15T10:34:34;16.80;99.90
17236;DHT22;8734;59.272;17.780;2023-04-15T10:37:03;16.70;99.90
17236;DHT22;8734;59.272;17.780;2023-04-15T10:39:39;16.50;99.90
17236;DHT22;8734;59.272;17.780;2023-04-15T10:42:09;16.80;99.90
17236;DHT22;8734;59.272;17.780;2023-04-15T10:44:40;17.70;99.90
17236;DHT22;8734;59.272;17.780;2023-04-15T10:47:10;18.40;99.90
17236;DHT22;8734;59.272;17.780;2023-04-15T10:49:45;17.60;99.90
17236;DHT22;8734;59.272;17.780;2023-04-15T10:52:15;16.40;99.90
17236;DHT22;8734;59.272;17.780;2023-04-15T10:54:43;16.50;99.90
17236;DHT22;8734;59.272;17.780;2023-04-15T10:57:20;16.20;99.90
17236;DHT22;8734;59.272;17.780;2023-04-15T11:00:09;17.30;99.90
17236;DHT22;8734;59.272;17.780;2023-04-15T11:02:40;17.00;99.90
17236;DHT22;8734;59.272;17.780;2023-04-15T11:05:11;17.50;99.90
17236;DHT22;8734;59.272;17.780;2023-04-15T11:07:48;17.30;99.90
17236;DHT22;8734;59.272;17.780;2023-04-15T11:10:50;17.10;99.90
17236;DHT22;8734;59.272;17.780;2023-04-15T11:13:26;17.00;99.90
17236;DHT22;8734;59.272;17.780;2023-04-15T11:15:56;16.80;99.90
17236;DHT22;8734;59.272;17.780;2023-04-15T11:18:31;16.20;99.90
17236;DHT22;8734;59.272;17.780;2023-04-15T11:21:03;16.40;99.90
17236;DHT22;8734;59.272;17.780;2023-04-15T11:23:34;16.70;99.90
17236;DHT22;8734;59.272;17.780;2023-04-15T11:26:04;17.40;99.90
17236;DHT22;8734;59.272;17.780;2023-04-15T11:28:37;16.30;99.90
17236;DHT22;8734;59.272;17.780;2023-04-15T11:31:08;16.20;99.90
17236;DHT22;8734;59.272;17.780;2023-04-15T11:33:44;16.80;99.90
17236;DHT22;8734;59.272;17.780;2023-04-15T11:36:15;17.30;99.90
17236;DHT22;8734;59.272;17.780;2023-04-15T11:38:45;17.40;99.90
17236;DHT22;8734;59.272;17.780;2023-04-15T11:41:13;17.50;99.90
17236;DHT22;8734;59.272;17.780;2023-04-15T11:43:42;18.20;99.90
17236;DHT22;8734;59.272;17.780;2023-04-15T11:46:10;18.10;99.90
17236;DHT22;8734;59.272;17.780;2023-04-15T11:48:41;17.70;99.90
17236;DHT22;8734;59.272;17.780;2023-04-15T11:51:11;18.00;99.90
17236;DHT22;8734;59.272;17.780;2023-04-15T11:53:43;17.90;99.40
17236;DHT22;8734;59.272;17.780;2023-04-15T11:56:17;17.20;99.60
17236;DHT22;8734;59.272;17.780;2023-04-15T11:58:46;16.70;99.90
17236;DHT22;8734;59.272;17.780;2023-04-15T12:01:16;16.30;99.90
17236;DHT22;8734;59.272;17.780;2023-04-15T12:03:45;15.70;99.90
17236;DHT22;8734;59.272;17.780;2023-04-15T12:06:16;16.20;99.90
17236;DHT22;8734;59.272;17.780;2023-04-15T12:09:08;17.40;99.90
17236;DHT22;8734;59.272;17.780;2023-04-15T12:11:42;16.30;99.90
17236;DHT22;8734;59.272;17.780;2023-04-15T12:14:15;16.60;99.90
17236;DHT22;8734;59.272;17.780;2023-04-15T12:16:45;16.60;99.90
17236;DHT22;8734;59.272;17.780;2023-04-15T12:19:21;17.00;99.90
17236;DHT22;8734;59.272;17.780;2023-04-15T12:21:50;18.00;99.90
17236;DHT22;8734;59.272;17.780;2023-04-15T12:24:21;18.70;99.30
17236;DHT22;8734;59.272;17.780;2023-04-15T12:26:51;18.80;98.00
17236;DHT22;8734;59.272;17.780;2023-04-15T12:29:25;18.50;97.90
17236;DHT22;8734;59.272;17.780;2023-04-15T12:31:55;18.50;98.50
17236;DHT22;8734;59.272;17.780;2023-04-15T12:34:28;17.90;98.60
17236;DHT22;8734;59.272;17.780;2023-04-15T12:36:57;17.40;99.30
17236;DHT22;8734;59.272;17.780;2023-04-15T12:39:29;17.00;99.90
17236;DHT22;8734;59.272;17.780;2023-04-15T12:41:58;18.40;98.70
17236;DHT22;8734;59.272;17.780;2023-04-15T12:44:27;17.70;98.30
17236;DHT22;8734;59.272;17.780;2023-04-15T12:46:56;18.00;98.50
17236;DHT22;8734;59.272;17.780;2023-04-15T12:49:26;18.60;97.10
17236;DHT22;8734;59.272;17.780;2023-04-15T12:51:56;18.90;96.90
17236;DHT22;8734;59.272;17.780;2023-04-15T12:54:27;19.50;96.10
17236;DHT22;8734;59.272;17.780;2023-04-15T12:56:55;19.80;96.00
17236;DHT22;8734;59.272;17.780;2023-04-15T12:59:24;20.00;95.50
17236;DHT22;8734;59.272;17.780;2023-04-15T13:01:52;19.80;94.40
17236;DHT22;8734;59.272;17.780;2023-04-15T13:04:21;19.20;94.80
17236;DHT22;8734;59.272;17.780;2023-04-15T13:06:50;18.90;95.10
17236;DHT22;8734;59.272;17.780;2023-04-15T13:09:18;18.00;95.50
17236;DHT22;8734;59.272;17.780;2023-04-15T13:11:48;17.70;96.60
17236;DHT22;8734;59.272;17.780;2023-04-15T13:14:19;17.70;96.70
17236;DHT22;8734;59.272;17.780;2023-04-15T13:16:47;16.60;97.60
17236;DHT22;8734;59.272;17.780;2023-04-15T13:19:15;16.40;97.70
17236;DHT22;8734;59.272;17.780;2023-04-15T13:21:43;17.40;98.10
17236;DHT22;8734;59.272;17.780;2023-04-15T13:24:12;16.70;98.20
17236;DHT22;8734;59.272;17.780;2023-04-15T13:26:40;16.00;98.60
17236;DHT22;8734;59.272;17.780;2023-04-15T13:29:09;15.00;99.60
17236;DHT22;8734;59.272;17.780;2023-04-15T13:31:39;13.50;99.90
17236;DHT22;8734;59.272;17.780;2023-04-15T13:34:08;12.70;99.90
17236;DHT22;8734;59.272;17.780;2023-04-15T13:36:36;11.70;99.90
17236;DHT22;8734;59.272;17.780;2023-04-15T13:39:04;11.00;99.90
17236;DHT22;8734;59.272;17.780;2023-04-15T13:41:33;10.60;99.90
17236;DHT22;8734;59.272;17.780;2023-04-15T13:44:01;10.30;99.90
17236;DHT22;8734;59.272;17.780;2023-04-15T13:46:32;10.10;99.90
17236;DHT22;8734;59.272;17.780;2023-04-15T13:49:01;10.00;99.90
17236;DHT22;8734;59.272;17.780;2023-04-15T13:51:29;10.00;99.90
17236;DHT22;8734;59.272;17.780;2023-04-15T13:53:58;9.90;99.90
17236;DHT22;8734;59.272;17.780;2023-04-15T13:56:27;9.80;99.90
17236;DHT22;8734;59.272;17.780;2023-04-15T13:58:59;9.80;99.90
17236;DHT22;8734;59.272;17.780;2023-04-15T14:01:28;9.80;99.90
17236;DHT22;8734;59.272;17.780;2023-04-15T14:03:57;9.90;99.90
17236;DHT22;8734;59.272;17.780;2023-04-15T14:06:27;9.80;99.90
17236;DHT22;8734;59.272;17.780;2023-04-15T14:08:55;9.80;99.90
17236;DHT22;8734;59.272;17.780;2023-04-15T14:11:23;9.80;99.90
17236;DHT22;8734;59.272;17.780;2023-04-15T14:13:52;9.70;99.90
17236;DHT22;8734;59.272;17.780;2023-04-15T14:16:20;9.90;99.90
17236;DHT22;8734;59.272;17.780;2023-04-15T14:18:48;9.80;99.90
17236;DHT22;8734;59.272;17.780;2023-04-15T14:21:18;9.80;99.90
17236;DHT22;8734;59.272;17.780;2023-04-15T14:23:46;9.90;99.90
17236;DHT22;8734;59.272;17.780;2023-04-15T14:26:14;9.90;99.90
17236;DHT22;8734;59.272;17.780;2023-04-15T14:28:43;10.00;99.90
17236;DHT22;8734;59.272;17.780;2023-04-15T14:31:11;10.10;99.90
17236;DHT22;8734;59.272;17.780;2023-04-15T14:33:40;10.30;99.90
17236;DHT22;8734;59.272;17.780;2023-04-15T14:36:08;10.20;99.90
17236;DHT22;8734;59.272;17.780;2023-04-15T14:38:38;10.00;99.90
17236;DHT22;8734;59.272;17.780;2023-04-15T14:41:07;10.20;99.90
17236;DHT22;8734;59.272;17.780;2023-04-15T14:43:36;10.00;99.90
17236;DHT22;8734;59.272;17.780;2023-04-15T14:46:04;10.10;99.90
17236;DHT22;8734;59.272;17.780;2023-04-15T14:48:34;10.00;99.90
17236;DHT22;8734;59.272;17.780;2023-04-15T14:51:03;10.10;99.90
17236;DHT22;8734;59.272;17.780;2023-04-15T14:53:31;10.00;99.90
17236;DHT22;8734;59.272;17.780;2023-04-15T14:56:01;10.10;99.90
17236;DHT22;8734;59.272;17.780;2023-04-15T14:58:29;10.20;99.90
17236;DHT22;8734;59.272;17.780;2023-04-15T15:00:58;10.20;99.90
17236;DHT22;8734;59.272;17.780;2023-04-15T15:03:28;10.10;99.90
17236;DHT22;8734;59.272;17.780;2023-04-15T15:05:56;10.20;99.90
17236;DHT22;8734;59.272;17.780;2023-04-15T15:08:24;10.00;99.90
17236;DHT22;8734;59.272;17.780;2023-04-15T15:10:53;9.90;99.90
17236;DHT22;8734;59.272;17.780;2023-04-15T15:13:22;9.90;99.90
17236;DHT22;8734;59.272;17.780;2023-04-15T15:15:51;10.00;99.90
17236;DHT22;8734;59.272;17.780;2023-04-15T15:18:19;10.10;99.90
17236;DHT22;8734;59.272;17.780;2023-04-15T15:20:48;10.00;99.90
17236;DHT22;8734;59.272;17.780;2023-04-15T15:23:16;9.90;99.90
17236;DHT22;8734;59.272;17.780;2023-04-15T15:25:45;9.90;99.90
17236;DHT22;8734;59.272;17.780;2023-04-15T15:28:14;9.70;99.90
17236;DHT22;8734;59.272;17.780;2023-04-15T15:30:43;9.40;99.90
17236;DHT22;8734;59.272;17.780;2023-04-15T15:33:11;9.20;99.90
17236;DHT22;8734;59.272;17.780;2023-04-15T15:35:40;9.10;99.90
17236;DHT22;8734;59.272;17.780;2023-04-15T15:38:10;9.10;99.90
17236;DHT22;8734;59.272;17.780;2023-04-15T15:40:39;9.10;99.90
17236;DHT22;8734;59.272;17.780;2023-04-15T15:43:07;9.10;99.90
17236;DHT22;8734;59.272;17.780;2023-04-15T15:45:35;9.10;99.90
17236;DHT22;8734;59.272;17.780;2023-04-15T15:48:05;9.20;99.90
17236;DHT22;8734;59.272;17.780;2023-04-15T15:50:34;9.20;99.90
17236;DHT22;8734;59.272;17.780;2023-04-15T15:53:02;9.10;99.90